Time;durP1;ratioP1;P1;durP2;ratioP2;P2;SDS_P1;SDS_P2;PMS_P1;PMS_P2;Temp;Humidity;BMP_temperature;BMP_pressure;BME280_temperature;BME280_humidity;BME280_pressure;Samples;Min_cycle;Max_cycle;Signal;HPM_P1;HPM_P2
2022/10/08 00:00:48;;;;;;;12.07;2.80;;;12.10;1.00;;;;;;5076544;28;20580;-54
2022/10/08 00:03:16;;;;;;;8.43;3.30;;;12.20;1.00;;;;;;5069751;28;20446;-53
2022/10/08 00:05:41;;;;;;;12.97;3.97;;;12.20;1.00;;;;;;5106034;28;20974;-53
2022/10/08 00:08:08;;;;;;;13.63;8.70;;;12.20;1.00;;;;;;5106991;28;20407;-54
2022/10/08 00:10:35;;;;;;;7.73;3.40;;;12.20;1.00;;;;;;5087462;28;20328;-52
2022/10/08 00:13:02;;;;;;;16.40;4.13;;;12.30;1.00;;;;;;5091024;28;20509;-55
2022/10/08 00:15:28;;;;;;;18.27;5.00;;;12.30;1.00;;;;;;5088625;28;20936;-54
2022/10/08 00:17:53;;;;;;;18.40;3.77;;;12.30;1.00;;;;;;5090988;28;20474;-54
2022/10/08 00:20:20;;;;;;;8.63;3.30;;;12.20;1.00;;;;;;5088446;28;20190;-54
2022/10/08 00:22:47;;;;;;;14.63;3.97;;;12.20;1.00;;;;;;5090762;28;20524;-53
2022/10/08 00:25:12;;;;;;;10.20;3.40;;;12.10;1.00;;;;;;5076640;28;20483;-54
2022/10/08 00:27:38;;;;;;;11.80;3.77;;;12.10;1.00;;;;;;5090915;28;20942;-54
2022/10/08 00:30:04;;;;;;;10.40;3.60;;;12.10;1.00;;;;;;5088935;28;20173;-53
2022/10/08 00:32:30;;;;;;;12.23;3.60;;;12.00;1.00;;;;;;5069633;28;20263;-54
2022/10/08 00:34:56;;;;;;;16.50;4.43;;;12.00;1.00;;;;;;5069802;28;20408;-54
2022/10/08 00:37:22;;;;;;;14.10;3.80;;;12.00;1.00;;;;;;5089061;28;20219;-54
2022/10/08 00:39:47;;;;;;;13.17;4.00;;;12.00;1.00;;;;;;5089154;28;20914;-54
2022/10/08 00:42:13;;;;;;;12.47;3.37;;;12.00;1.00;;;;;;5090220;28;20398;-54
2022/10/08 00:44:46;;;;;;;17.57;3.70;;;12.00;1.00;;;;;;5087586;28;20312;-55
2022/10/08 00:47:18;;;;;;;14.43;3.90;;;12.00;1.00;;;;;;5090721;28;20177;-54
2022/10/08 00:49:48;;;;;;;14.60;3.70;;;11.90;1.00;;;;;;5089050;28;20887;-54
2022/10/08 00:52:15;;;;;;;14.00;3.57;;;11.90;1.00;;;;;;5090387;28;20412;-54
2022/10/08 00:54:41;;;;;;;11.63;3.97;;;11.90;1.00;;;;;;5088955;28;20809;-54
2022/10/08 00:57:07;;;;;;;16.27;3.50;;;11.80;1.00;;;;;;5089836;28;20498;-54
2022/10/08 00:59:35;;;;;;;17.13;4.07;;;11.80;1.00;;;;;;5089473;28;20181;-53
2022/10/08 01:02:00;;;;;;;8.87;3.23;;;11.80;1.00;;;;;;5089874;28;20425;-53
2022/10/08 01:04:26;;;;;;;12.73;3.20;;;11.80;1.00;;;;;;5090142;28;21402;-53
2022/10/08 01:07:16;;;;;;;16.90;3.83;;;11.70;1.00;;;;;;5071678;28;20609;-53
2022/10/08 01:09:54;;;;;;;8.63;3.27;;;11.80;1.00;;;;;;5069962;28;21079;-53
2022/10/08 01:12:43;;;;;;;14.83;3.57;;;11.80;1.00;;;;;;5069589;28;20491;-53
2022/10/08 01:15:30;;;;;;;13.37;3.70;;;11.70;1.00;;;;;;5080604;28;20533;-54
2022/10/08 01:18:28;;;;;;;19.00;4.10;;;11.70;1.00;;;;;;5090053;28;20557;-52
2022/10/08 01:21:07;;;;;;;10.80;3.67;;;11.60;1.00;;;;;;5088509;28;20503;-54
2022/10/08 01:24:04;;;;;;;10.80;3.97;;;11.60;1.00;;;;;;5088804;28;20419;-54
2022/10/08 01:26:41;;;;;;;15.53;3.37;;;11.50;1.00;;;;;;5079021;28;20477;-54
2022/10/08 01:29:12;;;;;;;12.83;3.50;;;11.50;1.00;;;;;;5088667;28;20838;-53
2022/10/08 01:31:49;;;;;;;12.00;4.00;;;11.50;1.00;;;;;;5089946;28;20441;-54
2022/10/08 01:34:28;;;;;;;9.30;3.97;;;11.50;1.00;;;;;;5088116;28;20446;-53
2022/10/08 01:36:55;;;;;;;19.80;4.43;;;11.50;1.00;;;;;;5089616;28;20932;-54
2022/10/08 01:39:27;;;;;;;7.23;3.70;;;11.60;1.00;;;;;;5082144;28;20451;-54
2022/10/08 01:41:57;;;;;;;16.43;4.10;;;11.50;1.00;;;;;;5069912;28;20420;-53
2022/10/08 01:44:34;;;;;;;11.87;3.57;;;11.50;1.00;;;;;;5069495;28;20879;-53
2022/10/08 01:47:04;;;;;;;11.50;3.80;;;11.60;1.00;;;;;;5073735;28;20408;-53
2022/10/08 01:49:38;;;;;;;11.60;3.17;;;11.60;1.00;;;;;;5077836;28;20863;-54
2022/10/08 01:52:11;;;;;;;11.30;3.77;;;11.50;1.00;;;;;;5093987;28;20486;-54
2022/10/08 01:54:39;;;;;;;8.67;3.43;;;11.60;1.00;;;;;;5075887;28;20444;-53
2022/10/08 01:57:09;;;;;;;10.93;3.63;;;11.60;1.00;;;;;;5078942;28;20459;-54
2022/10/08 01:59:43;;;;;;;14.80;3.23;;;11.60;1.00;;;;;;5093246;28;20402;-54
2022/10/08 02:02:20;;;;;;;11.30;3.53;;;11.60;1.00;;;;;;5091953;28;20795;-54
2022/10/08 02:04:48;;;;;;;13.93;4.10;;;11.60;1.00;;;;;;5092554;28;21124;-54
2022/10/08 02:07:15;;;;;;;16.03;3.20;;;11.60;1.00;;;;;;5091917;28;20555;-55
2022/10/08 02:09:50;;;;;;;11.10;3.90;;;11.60;1.00;;;;;;5093344;28;20491;-54
2022/10/08 02:12:17;;;;;;;14.40;3.70;;;11.60;1.00;;;;;;5091769;28;20449;-54
2022/10/08 02:14:47;;;;;;;18.77;3.70;;;11.60;1.00;;;;;;5093338;28;20430;-54
2022/10/08 02:17:43;;;;;;;12.97;3.60;;;11.50;1.00;;;;;;5087198;28;21039;-53
2022/10/08 02:20:17;;;;;;;12.60;3.40;;;11.60;1.00;;;;;;5072718;28;20404;-54
2022/10/08 02:22:49;;;;;;;14.17;4.10;;;11.60;1.00;;;;;;5087822;28;20442;-54
2022/10/08 02:25:24;;;;;;;13.20;3.43;;;11.60;1.00;;;;;;5076302;28;20404;-52
2022/10/08 02:27:57;;;;;;;14.80;4.43;;;11.70;1.00;;;;;;5087814;28;20525;-53
2022/10/08 02:30:23;;;;;;;15.77;3.73;;;11.70;1.00;;;;;;5092963;28;20877;-53
2022/10/08 02:33:03;;;;;;;23.97;4.40;;;11.70;1.00;;;;;;5091667;28;20442;-54
2022/10/08 02:35:50;;;;;;;9.63;3.87;;;11.70;1.00;;;;;;5092814;28;20482;-54
2022/10/08 02:38:21;;;;;;;19.17;4.60;;;11.70;1.00;;;;;;5073232;28;20454;-54
2022/10/08 02:40:51;;;;;;;12.50;4.10;;;11.70;1.00;;;;;;5072370;28;20415;-54
2022/10/08 02:43:23;;;;;;;20.50;4.60;;;11.70;1.00;;;;;;5090302;28;20435;-54
2022/10/08 02:45:55;;;;;;;16.57;3.47;;;11.70;1.00;;;;;;5091372;28;20490;-54
2022/10/08 02:48:30;;;;;;;14.10;3.10;;;11.70;1.00;;;;;;5092411;28;20407;-54
2022/10/08 02:51:01;;;;;;;16.33;3.27;;;11.70;1.00;;;;;;5090764;28;20896;-55
2022/10/08 02:53:27;;;;;;;15.40;4.40;;;11.70;1.00;;;;;;5072739;28;20841;-53
2022/10/08 02:56:04;;;;;;;10.30;3.43;;;11.70;1.00;;;;;;5071574;28;20480;-53
2022/10/08 02:58:30;;;;;;;14.93;4.93;;;11.70;1.00;;;;;;5071927;28;20435;-53
2022/10/08 03:01:08;;;;;;;16.13;3.53;;;11.80;1.00;;;;;;5072917;28;20436;-54
2022/10/08 03:03:43;;;;;;;10.40;3.67;;;11.80;1.00;;;;;;5071958;28;20586;-54
2022/10/08 03:06:10;;;;;;;18.97;4.20;;;11.80;1.00;;;;;;5084815;28;20461;-54
2022/10/08 03:08:42;;;;;;;13.97;4.10;;;11.70;1.00;;;;;;5092733;28;20407;-53
2022/10/08 03:11:09;;;;;;;13.17;4.27;;;11.70;1.00;;;;;;5080193;27;20470;-54
2022/10/08 03:13:39;;;;;;;11.93;3.63;;;11.80;1.00;;;;;;5077798;28;20940;-54
2022/10/08 03:16:07;;;;;;;18.13;4.00;;;11.80;1.00;;;;;;5092132;28;20402;-54
2022/10/08 03:18:35;;;;;;;13.57;3.53;;;11.70;1.00;;;;;;5091059;28;20979;-54
2022/10/08 03:21:02;;;;;;;14.23;3.70;;;11.80;1.00;;;;;;5092236;28;20521;-54
2022/10/08 03:23:27;;;;;;;16.90;4.83;;;11.70;1.00;;;;;;5089368;28;20482;-54
2022/10/08 03:25:53;;;;;;;13.17;4.10;;;11.80;1.00;;;;;;5071852;28;20838;-54
2022/10/08 03:28:19;;;;;;;10.60;4.20;;;11.80;1.00;;;;;;5072520;28;20182;-53
2022/10/08 03:30:46;;;;;;;13.80;4.83;;;11.80;1.00;;;;;;5088776;28;20198;-53
2022/10/08 03:33:11;;;;;;;14.13;4.70;;;11.80;1.00;;;;;;5071035;28;20184;-54
2022/10/08 03:35:44;;;;;;;15.63;3.60;;;11.80;1.00;;;;;;5071153;28;20443;-54
2022/10/08 03:38:09;;;;;;;17.10;4.13;;;11.80;1.00;;;;;;5085520;28;20551;-54
2022/10/08 03:40:35;;;;;;;13.87;3.90;;;11.80;1.00;;;;;;5080483;28;20443;-54
2022/10/08 03:43:01;;;;;;;14.60;4.47;;;11.80;1.00;;;;;;5071573;28;20185;-54
2022/10/08 03:45:26;;;;;;;10.27;3.50;;;11.80;1.00;;;;;;5076997;28;20265;-51
2022/10/08 03:47:52;;;;;;;13.10;3.10;;;11.80;1.00;;;;;;5071419;28;20190;-54
2022/10/08 03:50:19;;;;;;;22.33;4.33;;;11.70;1.00;;;;;;5077173;28;20185;-54
2022/10/08 03:52:45;;;;;;;13.30;4.33;;;11.70;1.00;;;;;;5091537;28;20660;-54
2022/10/08 03:55:10;;;;;;;13.67;4.30;;;11.70;1.00;;;;;;5088711;28;20439;-54
2022/10/08 03:57:36;;;;;;;14.27;5.13;;;11.70;1.00;;;;;;5091274;28;20203;-54
2022/10/08 04:00:02;;;;;;;11.00;4.40;;;11.70;1.00;;;;;;5090153;28;20189;-54
2022/10/08 04:02:28;;;;;;;14.30;4.10;;;11.70;12.40;;;;;;5091211;28;20185;-54
2022/10/08 04:04:53;;;;;;;12.70;3.97;;;11.70;34.90;;;;;;5089603;28;20527;-54
2022/10/08 04:07:19;;;;;;;12.77;4.17;;;11.70;73.90;;;;;;5091055;28;20181;-55
2022/10/08 04:09:44;;;;;;;12.03;4.10;;;11.60;99.90;;;;;;5089562;28;20243;-53
2022/10/08 04:12:10;;;;;;;16.03;4.80;;;11.60;99.90;;;;;;5091140;28;20223;-55
2022/10/08 04:14:35;;;;;;;8.97;3.63;;;11.60;99.90;;;;;;5090002;28;20193;-54
2022/10/08 04:17:01;;;;;;;13.53;4.43;;;11.70;99.90;;;;;;5090618;28;20322;-54
2022/10/08 04:19:26;;;;;;;16.20;4.23;;;11.70;99.90;;;;;;5074092;28;20201;-54
2022/10/08 04:21:52;;;;;;;10.37;4.40;;;11.60;99.90;;;;;;5071023;28;20166;-54
2022/10/08 04:24:18;;;;;;;12.37;3.70;;;11.60;99.90;;;;;;5078441;28;20189;-54
2022/10/08 04:26:43;;;;;;;13.60;4.97;;;11.70;99.90;;;;;;5090819;28;20250;-54
2022/10/08 04:29:11;;;;;;;10.53;4.37;;;11.70;99.90;;;;;;5089377;28;20287;-54
2022/10/08 04:31:36;;;;;;;18.67;4.53;;;11.60;99.90;;;;;;5090759;28;20180;-48
2022/10/08 04:34:02;;;;;;;12.77;4.60;;;11.60;99.90;;;;;;5089355;28;20452;-54
2022/10/08 04:36:28;;;;;;;12.53;3.77;;;11.70;99.90;;;;;;5090474;28;20651;-54
2022/10/08 04:38:53;;;;;;;10.73;4.30;;;11.60;99.90;;;;;;5089544;28;20184;-54
2022/10/08 04:41:22;;;;;;;14.13;4.50;;;11.70;99.90;;;;;;5082551;28;20240;-54
2022/10/08 04:43:48;;;;;;;12.37;4.50;;;11.60;99.90;;;;;;5070449;28;20162;-54
2022/10/08 04:46:16;;;;;;;16.33;4.77;;;11.60;99.90;;;;;;5069777;28;20447;-54
2022/10/08 04:48:55;;;;;;;14.07;5.30;;;11.60;99.90;;;;;;5070374;28;21106;-54
2022/10/08 04:51:23;;;;;;;15.40;4.30;;;11.60;99.90;;;;;;5075392;28;20854;-55
2022/10/08 04:53:49;;;;;;;12.10;4.37;;;11.70;99.90;;;;;;5080514;28;20578;-53
2022/10/08 04:56:17;;;;;;;15.20;4.80;;;11.70;99.90;;;;;;5074358;28;20477;-54
2022/10/08 04:58:44;;;;;;;17.97;4.70;;;11.70;99.90;;;;;;5090256;28;20980;-54
2022/10/08 05:01:12;;;;;;;11.90;4.00;;;11.70;99.90;;;;;;5086217;28;20440;-46
2022/10/08 05:03:39;;;;;;;22.63;4.70;;;11.70;99.90;;;;;;5070176;28;20842;-54
2022/10/08 05:06:06;;;;;;;18.87;4.63;;;11.60;99.90;;;;;;5071747;28;20479;-55
2022/10/08 05:08:32;;;;;;;16.70;4.63;;;11.60;99.90;;;;;;5090356;28;20460;-55
2022/10/08 05:10:58;;;;;;;16.93;4.17;;;11.70;99.90;;;;;;5088552;28;20782;-54
2022/10/08 05:13:24;;;;;;;20.33;4.87;;;11.60;99.90;;;;;;5090380;28;20415;-54
2022/10/08 05:15:49;;;;;;;19.20;5.10;;;11.60;99.90;;;;;;5090286;28;20227;-54
2022/10/08 05:18:15;;;;;;;14.27;4.93;;;11.60;99.90;;;;;;5088736;28;20255;-54
2022/10/08 05:20:41;;;;;;;16.07;4.80;;;11.60;99.90;;;;;;5089723;28;20218;-55
2022/10/08 05:23:06;;;;;;;23.37;5.33;;;11.50;99.90;;;;;;5088912;28;20203;-53
2022/10/08 05:25:33;;;;;;;16.30;5.20;;;11.60;1.00;;;;;;5070908;28;20576;-54
2022/10/08 05:27:59;;;;;;;15.20;5.03;;;11.60;1.00;;;;;;5070423;28;20193;-54
2022/10/08 05:30:25;;;;;;;17.10;4.20;;;11.60;1.00;;;;;;5069390;28;20475;-55
2022/10/08 05:32:51;;;;;;;12.47;4.40;;;11.60;1.00;;;;;;5088375;28;20466;-53
2022/10/08 05:35:16;;;;;;;12.80;4.53;;;11.60;1.00;;;;;;5079643;28;20197;-55
2022/10/08 05:37:42;;;;;;;17.60;4.80;;;11.70;99.90;;;;;;5069479;28;20292;-54
2022/10/08 05:40:08;;;;;;;11.70;4.70;;;11.70;99.90;;;;;;5069169;28;20248;-53
2022/10/08 05:42:33;;;;;;;8.90;4.27;;;11.60;99.90;;;;;;5069474;28;20190;-54
2022/10/08 05:44:59;;;;;;;23.10;4.63;;;11.70;99.90;;;;;;5075012;28;20441;-54
2022/10/08 05:47:24;;;;;;;15.93;4.70;;;11.60;99.90;;;;;;5089671;28;20172;-55
2022/10/08 05:49:50;;;;;;;16.80;5.63;;;11.60;1.00;;;;;;5084616;28;20703;-54
2022/10/08 05:52:16;;;;;;;16.90;4.80;;;11.60;1.00;;;;;;5070060;28;20669;-47
2022/10/08 05:54:41;;;;;;;20.83;5.60;;;11.60;1.00;;;;;;5071498;28;20193;-54
2022/10/08 05:57:07;;;;;;;12.53;4.63;;;11.60;1.00;;;;;;5088379;28;20208;-54
2022/10/08 05:59:33;;;;;;;14.00;4.63;;;11.50;1.00;;;;;;5089918;28;20510;-54
2022/10/08 06:01:58;;;;;;;16.43;5.20;;;11.40;1.00;;;;;;5085276;28;20216;-54
2022/10/08 06:04:24;;;;;;;16.73;5.50;;;11.40;1.00;;;;;;5069447;28;20278;-54
2022/10/08 06:06:49;;;;;;;16.80;5.60;;;11.40;1.00;;;;;;5068891;28;20658;-54
2022/10/08 06:09:19;;;;;;;18.17;5.27;;;11.50;45.40;;;;;;5069240;28;20517;-54
2022/10/08 06:11:45;;;;;;;11.87;4.70;;;11.50;67.40;;;;;;5081662;28;20182;-54
2022/10/08 06:14:13;;;;;;;18.87;5.13;;;11.50;94.00;;;;;;5069411;28;20416;-54
2022/10/08 06:16:39;;;;;;;19.00;5.13;;;11.50;48.40;;;;;;5069559;28;20474;-54
2022/10/08 06:19:05;;;;;;;15.97;4.80;;;11.60;52.20;;;;;;5069119;28;20810;-54
2022/10/08 06:21:32;;;;;;;13.57;5.07;;;11.60;43.70;;;;;;5068626;28;20447;-54
2022/10/08 06:24:00;;;;;;;13.40;4.20;;;11.60;69.30;;;;;;5074849;28;20415;-55
2022/10/08 06:26:29;;;;;;;13.47;4.70;;;11.60;13.00;;;;;;5074547;28;20919;-54
2022/10/08 06:28:55;;;;;;;13.73;4.77;;;11.70;12.10;;;;;;5069298;28;20428;-63
2022/10/08 06:31:20;;;;;;;18.73;4.80;;;11.70;1.00;;;;;;5081401;28;20459;-54
2022/10/08 06:33:46;;;;;;;19.43;5.70;;;11.60;1.00;;;;;;5092745;28;20449;-54
2022/10/08 06:36:13;;;;;;;11.73;5.07;;;11.70;1.00;;;;;;5091858;28;20193;-54
2022/10/08 06:38:39;;;;;;;11.70;4.87;;;11.70;1.00;;;;;;5093109;28;20442;-55
2022/10/08 06:41:04;;;;;;;15.50;4.90;;;11.70;1.00;;;;;;5082915;28;20443;-54
2022/10/08 06:43:30;;;;;;;17.03;5.37;;;11.70;1.00;;;;;;5072137;28;20211;-54
2022/10/08 06:45:58;;;;;;;12.60;4.90;;;11.60;78.90;;;;;;5079356;28;20547;-55
2022/10/08 06:48:25;;;;;;;10.63;4.20;;;11.60;99.90;;;;;;5091934;28;20169;-55
2022/10/08 06:51:02;;;;;;;14.10;4.80;;;11.60;99.90;;;;;;5093859;28;20426;-54
2022/10/08 06:53:29;;;;;;;10.20;4.43;;;11.60;99.90;;;;;;5091457;28;20431;-54
2022/10/08 06:55:59;;;;;;;16.30;5.07;;;11.60;99.90;;;;;;5072044;28;20405;-57
2022/10/08 06:58:25;;;;;;;18.50;5.07;;;11.60;1.00;;;;;;5072470;28;20502;-53
2022/10/08 07:01:11;;;;;;;12.13;4.77;;;11.60;1.00;;;;;;5090017;28;20517;-55
2022/10/08 07:03:37;;;;;;;8.10;4.20;;;11.70;1.00;;;;;;5091337;28;20411;-54
2022/10/08 07:06:06;;;;;;;16.20;4.83;;;11.70;1.00;;;;;;5092338;28;20493;-54
2022/10/08 07:08:32;;;;;;;18.27;4.70;;;11.80;1.00;;;;;;5092447;28;20946;-55
2022/10/08 07:11:13;;;;;;;15.87;5.00;;;11.90;1.00;;;;;;5071843;28;20496;-55
2022/10/08 07:13:38;;;;;;;18.67;5.07;;;12.00;1.00;;;;;;5072151;28;20411;-55
2022/10/08 07:16:06;;;;;;;13.30;4.50;;;12.10;99.90;;;;;;5091378;28;20904;-54
2022/10/08 07:18:33;;;;;;;14.77;4.57;;;12.20;99.90;;;;;;5090862;28;20207;-54
2022/10/08 07:20:59;;;;;;;10.77;4.30;;;12.30;99.90;;;;;;5091010;28;20947;-54
2022/10/08 07:23:24;;;;;;;14.33;4.20;;;12.40;99.90;;;;;;5090073;28;20431;-54
2022/10/08 07:25:55;;;;;;;11.93;4.00;;;12.40;94.70;;;;;;5071623;28;20267;-54
2022/10/08 07:28:21;;;;;;;9.93;4.20;;;12.70;25.50;;;;;;5086291;28;20195;-54
2022/10/08 07:30:47;;;;;;;10.33;4.27;;;13.10;1.00;;;;;;5091817;28;20415;-54
2022/10/08 07:33:12;;;;;;;6.00;3.93;;;13.80;1.00;;;;;;5090713;28;20227;-54
2022/10/08 07:35:38;;;;;;;8.93;3.30;;;14.50;63.10;;;;;;5091730;28;20181;-55
2022/10/08 07:38:04;;;;;;;7.70;3.53;;;15.30;1.00;;;;;;5090564;28;20253;-55
2022/10/08 07:40:29;;;;;;;12.07;3.40;;;16.30;1.00;;;;;;5091574;28;20177;-56
2022/10/08 07:42:55;;;;;;;10.30;3.80;;;17.00;1.00;;;;;;5089901;28;20515;-55
2022/10/08 07:45:20;;;;;;;8.13;2.97;;;17.20;1.00;;;;;;5090281;28;20180;-55
2022/10/08 07:47:46;;;;;;;4.97;2.77;;;17.50;1.00;;;;;;5091455;28;20206;-55
2022/10/08 07:50:11;;;;;;;10.23;3.23;;;17.40;1.00;;;;;;5085027;28;20201;-55
2022/10/08 07:52:37;;;;;;;7.97;3.17;;;17.30;1.00;;;;;;5071422;28;20181;-54
2022/10/08 07:55:03;;;;;;;8.20;3.30;;;17.20;1.00;;;;;;5074392;28;20269;-54
2022/10/08 07:57:28;;;;;;;14.93;3.43;;;16.90;1.00;;;;;;5091433;28;20213;-55
2022/10/08 07:59:54;;;;;;;9.50;2.77;;;17.10;1.00;;;;;;5088739;28;20173;-56
2022/10/08 08:02:19;;;;;;;14.23;3.10;;;17.70;1.00;;;;;;5071265;28;20257;-56
2022/10/08 08:04:45;;;;;;;9.43;3.03;;;18.30;1.00;;;;;;5070450;28;20232;-55
2022/10/08 08:07:10;;;;;;;8.07;2.97;;;18.20;1.00;;;;;;5091103;28;20208;-56
2022/10/08 08:09:36;;;;;;;4.97;2.47;;;17.40;1.00;;;;;;5091217;28;20655;-56
2022/10/08 08:12:01;;;;;;;10.53;3.13;;;17.20;1.00;;;;;;5071537;28;20200;-55
2022/10/08 08:14:27;;;;;;;11.57;3.00;;;16.80;1.00;;;;;;5071192;28;20271;-56
2022/10/08 08:16:53;;;;;;;8.63;2.80;;;16.20;1.00;;;;;;5070654;28;20211;-56
2022/10/08 08:19:18;;;;;;;10.40;2.70;;;16.60;1.00;;;;;;5084395;28;20279;-57
2022/10/08 08:21:44;;;;;;;9.47;2.70;;;17.30;1.00;;;;;;5089821;28;20169;-57
2022/10/08 08:24:11;;;;;;;12.83;2.77;;;18.00;1.00;;;;;;5083530;28;20596;-56
2022/10/08 08:26:39;;;;;;;8.13;1.93;;;18.10;1.00;;;;;;5068549;28;20178;-56
2022/10/08 08:29:11;;;;;;;7.90;2.23;;;17.50;1.00;;;;;;5091142;28;20568;-56
2022/10/08 08:31:40;;;;;;;11.93;3.63;;;17.90;1.00;;;;;;5090000;28;20398;-61
2022/10/08 08:34:11;;;;;;;9.13;2.60;;;18.20;1.00;;;;;;5079120;28;20520;-56
2022/10/08 08:36:39;;;;;;;9.97;2.50;;;18.30;1.00;;;;;;5073667;28;20468;-56
2022/10/08 08:39:07;;;;;;;14.00;2.70;;;18.20;1.00;;;;;;5069927;28;20408;-56
2022/10/08 08:41:45;;;;;;;5.90;2.13;;;18.00;1.00;;;;;;5085602;28;20840;-56
2022/10/08 08:44:21;;;;;;;6.13;2.57;;;17.60;1.00;;;;;;5090770;28;20892;-56
2022/10/08 08:46:58;;;;;;;16.90;2.77;;;17.10;1.00;;;;;;5089377;28;20473;-55
2022/10/08 08:49:30;;;;;;;9.60;2.80;;;17.10;1.00;;;;;;5090445;28;20433;-56
2022/10/08 08:51:58;;;;;;;6.43;2.63;;;17.00;1.00;;;;;;5072059;28;20440;-57
2022/10/08 08:54:25;;;;;;;12.47;2.60;;;16.60;1.00;;;;;;5070084;28;20485;-56
2022/10/08 08:56:52;;;;;;;12.53;2.30;;;16.50;1.00;;;;;;5069776;28;20462;-56
2022/10/08 08:59:28;;;;;;;8.03;3.03;;;16.30;1.00;;;;;;5069996;28;20419;-55
2022/10/08 09:01:58;;;;;;;8.30;1.90;;;16.20;1.00;;;;;;5085144;28;20438;-56
2022/10/08 09:04:30;;;;;;;10.73;2.10;;;16.20;1.00;;;;;;5090159;28;20462;-56
2022/10/08 09:06:58;;;;;;;6.97;2.33;;;16.00;1.00;;;;;;5073725;28;20459;-55
2022/10/08 09:09:38;;;;;;;7.27;2.27;;;15.90;1.00;;;;;;5070289;28;20835;-57
2022/10/08 09:12:23;;;;;;;9.50;2.00;;;15.60;1.00;;;;;;5069469;28;20407;-55
2022/10/08 09:14:53;;;;;;;5.80;2.47;;;15.50;1.00;;;;;;5086300;28;21267;-56
2022/10/08 09:17:28;;;;;;;11.83;2.30;;;15.40;1.00;;;;;;5082776;28;20906;-56
2022/10/08 09:19:54;;;;;;;7.20;2.20;;;15.10;1.00;;;;;;5070116;28;20443;-56
2022/10/08 09:22:29;;;;;;;11.63;2.93;;;15.00;1.00;;;;;;5075611;28;20462;-56
2022/10/08 09:25:00;;;;;;;15.93;2.70;;;14.90;1.00;;;;;;5076371;28;20191;-55
2022/10/08 09:27:53;;;;;;;10.60;2.50;;;14.90;1.00;;;;;;5069777;28;20451;-55
2022/10/08 09:30:28;;;;;;;7.13;2.30;;;15.00;1.00;;;;;;5069358;28;20440;-57
2022/10/08 09:32:57;;;;;;;10.13;2.57;;;15.00;1.00;;;;;;5069990;28;20426;-55
2022/10/08 09:35:23;;;;;;;5.00;1.93;;;15.00;1.00;;;;;;5071521;28;20443;-56
2022/10/08 09:37:50;;;;;;;8.17;2.27;;;15.10;1.00;;;;;;5090006;28;20459;-56
2022/10/08 09:40:23;;;;;;;6.53;2.07;;;15.10;1.00;;;;;;5088082;28;20422;-55
2022/10/08 09:43:15;;;;;;;6.13;1.73;;;15.10;1.00;;;;;;5082414;28;20470;-54
2022/10/08 09:45:50;;;;;;;9.07;1.87;;;15.20;1.00;;;;;;5076988;28;20494;-56
2022/10/08 09:48:29;;;;;;;10.80;1.77;;;15.20;1.00;;;;;;5077468;28;20430;-55
2022/10/08 09:50:58;;;;;;;3.87;1.40;;;15.40;1.00;;;;;;5106917;28;20438;-57
2022/10/08 09:53:47;;;;;;;5.50;1.63;;;15.60;1.00;;;;;;5085705;28;20514;-56
2022/10/08 09:56:14;;;;;;;10.17;2.40;;;15.70;1.00;;;;;;5073244;28;20486;-55
2022/10/08 09:58:53;;;;;;;8.53;1.97;;;15.90;1.00;;;;;;5062790;28;20558;-56
2022/10/08 10:01:19;;;;;;;10.73;1.67;;;16.00;1.00;;;;;;5062053;28;20422;-54
2022/10/08 10:04:02;;;;;;;8.97;2.17;;;16.10;1.00;;;;;;5077298;28;20759;-56
2022/10/08 10:06:32;;;;;;;29.60;18.93;;;16.10;1.00;;;;;;5073786;28;20227;-56
2022/10/08 10:09:09;;;;;;;3.83;1.43;;;16.20;1.00;;;;;;5088276;28;20403;-56
2022/10/08 10:11:48;;;;;;;8.27;2.77;;;16.30;1.00;;;;;;5093466;28;20410;-56
2022/10/08 10:14:19;;;;;;;4.80;1.50;;;16.40;1.00;;;;;;5093484;28;20444;-56
2022/10/08 10:16:48;;;;;;;6.00;2.50;;;16.40;1.00;;;;;;5093454;28;20543;-56
2022/10/08 10:19:18;;;;;;;5.67;2.10;;;16.30;1.00;;;;;;5091645;28;20422;-56
2022/10/08 10:22:02;;;;;;;5.03;1.10;;;16.30;1.00;;;;;;5076698;28;20487;-55
2022/10/08 10:24:47;;;;;;;3.83;1.53;;;16.60;1.00;;;;;;5091259;28;21185;-56
2022/10/08 10:27:21;;;;;;;7.77;1.60;;;17.10;1.00;;;;;;5079310;28;20408;-57
2022/10/08 10:29:56;;;;;;;3.07;1.40;;;18.10;1.00;;;;;;5072839;28;20503;-57
2022/10/08 10:32:34;;;;;;;7.33;1.40;;;19.30;1.00;;;;;;5072735;28;20438;-56
2022/10/08 10:35:21;;;;;;;5.33;1.33;;;20.20;1.00;;;;;;5072500;28;20400;-57
2022/10/08 10:37:52;;;;;;;6.00;1.70;;;21.00;99.90;;;;;;5071467;28;20475;-57
2022/10/08 10:40:26;;;;;;;9.03;1.20;;;20.90;99.90;;;;;;5068689;28;21334;-57
2022/10/08 10:43:16;;;;;;;3.90;1.20;;;19.90;99.90;;;;;;5073860;28;20464;-56
2022/10/08 10:45:47;;;;;;;2.73;1.33;;;19.00;99.90;;;;;;5044957;28;20585;-56
2022/10/08 10:48:13;;;;;;;3.00;1.13;;;18.20;99.90;;;;;;5092460;28;20432;-56
2022/10/08 10:51:07;;;;;;;3.80;1.40;;;17.60;99.90;;;;;;5083778;28;20756;-57
2022/10/08 10:53:44;;;;;;;5.20;1.83;;;17.20;99.90;;;;;;5071753;28;20478;-58
2022/10/08 10:56:21;;;;;;;4.20;1.67;;;17.60;99.90;;;;;;5071533;28;20486;-57
2022/10/08 10:59:17;;;;;;;3.00;1.17;;;17.80;99.90;;;;;;5075356;28;20458;-58
2022/10/08 11:02:12;;;;;;;7.53;1.40;;;17.60;99.90;;;;;;5074855;28;20435;-57
2022/10/08 11:04:56;;;;;;;5.60;1.47;;;17.30;99.90;;;;;;5074539;28;20471;-57
2022/10/08 11:07:45;;;;;;;4.27;1.50;;;17.00;99.90;;;;;;5072203;28;20400;-58
2022/10/08 11:10:31;;;;;;;7.33;1.80;;;17.00;99.90;;;;;;5071714;28;20825;-56
2022/10/08 11:13:06;;;;;;;2.50;1.63;;;17.50;99.90;;;;;;5071916;28;20420;-56
2022/10/08 11:15:49;;;;;;;18.57;2.10;;;17.30;99.90;;;;;;5086043;28;20446;-55
2022/10/08 11:18:17;;;;;;;3.27;1.13;;;16.80;99.90;;;;;;5077897;28;20821;-54
2022/10/08 11:20:58;;;;;;;3.90;1.33;;;16.00;99.90;;;;;;5075323;28;20530;-55
2022/10/08 11:23:38;;;;;;;3.77;1.30;;;15.00;99.90;;;;;;5086015;28;20426;-55
2022/10/08 11:26:10;;;;;;;9.33;1.30;;;14.40;1.00;;;;;;5089680;28;20405;-55
2022/10/08 11:28:52;;;;;;;5.80;1.33;;;13.80;1.00;;;;;;5071991;28;20412;-54
2022/10/08 11:31:29;;;;;;;3.73;1.00;;;13.30;1.00;;;;;;5084219;28;20994;-56
2022/10/08 11:33:56;;;;;;;1.77;0.90;;;12.80;1.00;;;;;;5091920;28;20463;-55
2022/10/08 11:36:42;;;;;;;2.90;1.10;;;12.60;1.00;;;;;;5083622;28;20975;-54
2022/10/08 11:39:15;;;;;;;4.20;1.20;;;12.40;1.00;;;;;;5081313;28;20557;-55
2022/10/08 11:42:04;;;;;;;5.00;1.20;;;12.40;1.00;;;;;;5071781;28;20407;-56
2022/10/08 11:44:30;;;;;;;3.83;1.10;;;14.10;37.80;;;;;;5071906;28;20424;-54
2022/10/08 11:47:40;;;;;;;2.20;0.80;;;16.10;1.00;;;;;;5076293;28;20451;-56
2022/10/08 11:50:28;;;;;;;1.10;0.90;;;17.40;1.00;;;;;;5065307;28;20242;-56
2022/10/08 11:53:09;;;;;;;2.03;0.90;;;17.50;1.00;;;;;;5091657;28;20411;-56
2022/10/08 11:55:36;;;;;;;6.70;2.40;;;18.10;1.00;;;;;;5091553;28;20398;-44
2022/10/08 11:58:04;;;;;;;3.50;1.20;;;19.10;1.00;;;;;;5077305;28;20468;-44
2022/10/08 12:00:43;;;;;;;14.97;4.73;;;20.60;1.00;;;;;;5071014;28;20419;-50
2022/10/08 12:03:29;;;;;;;2.60;1.23;;;22.30;99.90;;;;;;5071256;28;20427;-44
2022/10/08 12:06:19;;;;;;;3.27;0.97;;;22.90;99.90;;;;;;5084530;28;20913;-44
2022/10/08 12:08:58;;;;;;;1.37;0.83;;;23.10;99.90;;;;;;5076960;28;20912;-44
2022/10/08 12:11:39;;;;;;;2.27;1.17;;;23.40;99.90;;;;;;5091229;28;20414;-44
2022/10/08 12:14:16;;;;;;;4.40;2.00;;;23.60;99.90;;;;;;5091325;28;20951;-44
2022/10/08 12:16:47;;;;;;;1.23;0.80;;;24.00;99.90;;;;;;5091077;28;20454;-46
2022/10/08 12:19:34;;;;;;;4.83;1.97;;;23.70;99.90;;;;;;5091144;28;20419;-44
2022/10/08 12:22:05;;;;;;;12.33;1.00;;;24.00;99.90;;;;;;5077298;28;20440;-45
2022/10/08 12:24:37;;;;;;;21.37;7.93;;;23.90;99.90;;;;;;5070820;28;20389;-44
2022/10/08 12:27:23;;;;;;;3.37;1.40;;;23.60;99.90;;;;;;5070593;28;20501;-44
2022/10/08 12:29:53;;;;;;;6.60;1.50;;;23.20;99.90;;;;;;5070769;28;20424;-45
2022/10/08 12:32:19;;;;;;;9.53;2.70;;;22.60;99.90;;;;;;5070782;28;20431;-44
2022/10/08 12:34:45;;;;;;;3.67;1.27;;;22.20;99.90;;;;;;5070682;28;20419;-44
2022/10/08 12:37:37;;;;;;;2.83;1.13;;;22.10;99.90;;;;;;5070585;28;20452;-46
2022/10/08 12:40:16;;;;;;;5.87;1.60;;;21.20;99.90;;;;;;5067502;28;20229;-45
2022/10/08 12:42:42;;;;;;;4.30;1.00;;;19.90;99.90;;;;;;5083543;28;20944;-44
2022/10/08 12:45:32;;;;;;;9.87;1.40;;;19.90;99.90;;;;;;5090505;28;20885;-43
2022/10/08 12:48:10;;;;;;;7.30;1.83;;;18.60;99.90;;;;;;5090613;28;20748;-44
2022/10/08 12:51:05;;;;;;;7.23;1.27;;;17.60;99.90;;;;;;5090573;28;20419;-44
2022/10/08 12:53:32;;;;;;;25.70;8.83;;;16.80;99.90;;;;;;5090660;28;20995;-45
2022/10/08 12:55:59;;;;;;;5.13;1.20;;;17.80;99.90;;;;;;5078322;28;20436;-44
2022/10/08 12:58:30;;;;;;;7.43;1.37;;;19.30;99.90;;;;;;5078681;28;20467;-44
2022/10/08 13:00:59;;;;;;;3.47;1.20;;;20.40;99.90;;;;;;5079670;28;21010;-44
2022/10/08 13:03:24;;;;;;;3.87;1.10;;;20.90;99.90;;;;;;5080084;28;20436;-45
2022/10/08 13:05:53;;;;;;;1.97;1.00;;;21.20;99.90;;;;;;5070173;28;20581;-44
2022/10/08 13:08:38;;;;;;;7.50;1.47;;;20.80;99.90;;;;;;5070448;28;20194;-46